createdAt,value
2019-05-06T00:00:59.344Z,20.88
2019-05-06T00:03:26.639Z,15.85
2019-05-06T00:05:55.102Z,17.15
2019-05-06T00:08:23.762Z,16.35
2019-05-06T00:10:54.107Z,11.65
2019-05-06T00:13:24.162Z,11.63
2019-05-06T00:15:54.354Z,11.85
2019-05-06T00:18:24.520Z,11.73
2019-05-06T00:20:54.818Z,11.20
2019-05-06T00:23:25.299Z,12.63
2019-05-06T00:25:55.528Z,9.15
2019-05-06T00:28:37.901Z,10.38
2019-05-06T00:31:14.015Z,9.35
2019-05-06T00:33:40.822Z,13.13
2019-05-06T00:36:09.104Z,10.45
2019-05-06T00:38:39.490Z,10.23
2019-05-06T00:41:27.863Z,8.50
2019-05-06T00:43:56.686Z,8.65
2019-05-06T00:46:25.338Z,10.08
2019-05-06T00:48:54.264Z,8.15
2019-05-06T00:51:24.217Z,12.68
2019-05-06T00:54:00.319Z,8.48
2019-05-06T00:56:28.934Z,9.90
2019-05-06T00:58:57.573Z,11.68
2019-05-06T01:01:29.617Z,8.75
2019-05-06T01:03:56.113Z,10.93
2019-05-06T01:06:24.714Z,8.55
2019-05-06T01:08:54.387Z,11.63
2019-05-06T01:11:24.081Z,11.75
2019-05-06T01:14:00.126Z,10.45
2019-05-06T01:16:29.232Z,17.50
2019-05-06T01:18:57.862Z,13.20
2019-05-06T01:21:26.309Z,9.98
2019-05-06T01:23:54.851Z,8.98
2019-05-06T01:26:24.236Z,8.98
2019-05-06T01:28:54.540Z,9.03
2019-05-06T01:31:24.857Z,9.35
2019-05-06T01:33:53.829Z,13.25
2019-05-06T01:36:24.784Z,10.58
2019-05-06T01:39:00.322Z,12.58
2019-05-06T01:41:46.827Z,10.43
2019-05-06T01:44:15.284Z,11.70
2019-05-06T01:46:44.711Z,16.20
2019-05-06T01:49:13.751Z,11.03
2019-05-06T01:51:43.786Z,11.10
2019-05-06T01:54:14.137Z,10.65
2019-05-06T01:56:44.426Z,14.70
2019-05-06T01:59:13.998Z,14.30
2019-05-06T02:01:54.788Z,17.73
2019-05-06T02:04:13.851Z,12.70
2019-05-06T02:06:43.757Z,14.98
2019-05-06T02:11:44.186Z,19.40
2019-05-06T02:14:14.004Z,14.90
2019-05-06T02:16:43.666Z,16.82
2019-05-06T02:19:12.126Z,17.02
2019-05-06T02:21:43.843Z,18.25
2019-05-06T02:24:13.932Z,18.45
2019-05-06T02:29:15.103Z,19.00
2019-05-06T02:31:51.421Z,24.77
2019-05-06T02:34:25.376Z,15.58
2019-05-06T02:36:55.669Z,14.18
2019-05-06T02:39:24.117Z,13.55
2019-05-06T02:41:54.922Z,15.63
2019-05-06T02:44:23.908Z,15.30
2019-05-06T02:46:54.389Z,15.08
2019-05-06T02:49:24.779Z,17.27
2019-05-06T02:51:54.570Z,12.65
2019-05-06T02:54:23.701Z,18.67
2019-05-06T02:56:53.314Z,17.12
2019-05-06T02:59:24.122Z,15.65
2019-05-06T03:01:53.772Z,13.30
2019-05-06T03:04:23.660Z,17.15
2019-05-06T03:06:53.296Z,13.25
2019-05-06T03:09:23.347Z,13.68
2019-05-06T03:11:54.017Z,18.00
2019-05-06T03:14:23.343Z,15.80
2019-05-06T03:19:24.020Z,13.98
2019-05-06T03:24:25.066Z,18.00
2019-05-06T03:26:57.057Z,18.95
2019-05-06T03:29:25.450Z,18.07
2019-05-06T03:31:56.464Z,17.37
2019-05-06T03:34:49.368Z,23.18
2019-05-06T03:36:56.485Z,18.48
2019-05-06T03:39:24.693Z,20.37
2019-05-06T03:41:53.784Z,21.33
2019-05-06T03:44:23.911Z,17.27
2019-05-06T03:47:13.874Z,19.57
2019-05-06T03:49:50.275Z,20.90
2019-05-06T03:52:22.921Z,17.50
2019-05-06T03:54:52.985Z,22.73
2019-05-06T03:57:23.137Z,17.40
2019-05-06T03:59:52.949Z,14.30
2019-05-06T04:02:23.790Z,18.52
2019-05-06T04:04:55.744Z,15.30
2019-05-06T04:07:23.395Z,13.72
2019-05-06T04:09:53.677Z,14.65
2019-05-06T04:12:23.502Z,15.75
2019-05-06T04:14:54.030Z,11.48
2019-05-06T04:17:25.448Z,10.05
2019-05-06T04:19:58.219Z,10.35
2019-05-06T04:22:34.537Z,15.65
2019-05-06T04:25:10.024Z,10.60
2019-05-06T04:27:42.784Z,8.08
2019-05-06T04:30:13.637Z,9.48
2019-05-06T04:32:44.086Z,11.08
2019-05-06T04:35:13.458Z,10.68
2019-05-06T04:37:44.526Z,7.40
2019-05-06T04:40:13.201Z,7.10
2019-05-06T04:42:44.462Z,7.25
2019-05-06T04:45:13.456Z,6.62
2019-05-06T04:47:44.638Z,8.03
2019-05-06T04:50:16.332Z,7.30
2019-05-06T04:52:44.904Z,9.65
2019-05-06T04:55:19.134Z,9.38
2019-05-06T04:57:47.817Z,6.12
2019-05-06T05:00:19.237Z,7.08
2019-05-06T05:02:49.354Z,4.60
2019-05-06T05:05:18.313Z,9.13
2019-05-06T05:07:46.639Z,5.55
2019-05-06T05:10:19.648Z,5.22
2019-05-06T05:13:03.572Z,6.03
2019-05-06T05:15:33.903Z,4.37
2019-05-06T05:18:23.604Z,7.03
2019-05-06T05:20:52.978Z,5.30
2019-05-06T05:23:22.907Z,5.37
2019-05-06T05:25:52.312Z,7.37
2019-05-06T05:28:22.300Z,7.00
2019-05-06T05:30:54.062Z,4.30
2019-05-06T05:33:22.630Z,4.50
2019-05-06T05:35:52.576Z,5.37
2019-05-06T05:38:22.739Z,7.00
2019-05-06T05:40:52.417Z,6.35
2019-05-06T05:46:29.244Z,8.83
2019-05-06T05:49:00.062Z,6.30
2019-05-06T05:51:28.509Z,7.60
2019-05-06T05:53:56.890Z,6.37
2019-05-06T05:56:25.607Z,6.60
2019-05-06T05:58:56.912Z,7.25
2019-05-06T06:01:25.449Z,5.85
2019-05-06T06:03:54.399Z,5.25
2019-05-06T06:06:22.964Z,11.08
2019-05-06T06:08:52.350Z,7.72
2019-05-06T06:11:23.395Z,10.00
2019-05-06T06:13:52.560Z,7.55
2019-05-06T06:16:28.970Z,7.37
2019-05-06T06:19:00.060Z,7.12
2019-05-06T06:21:32.234Z,5.83
2019-05-06T06:24:02.859Z,10.05
2019-05-06T06:26:32.545Z,8.60
2019-05-06T06:29:03.242Z,11.80
2019-05-06T06:31:33.577Z,5.47
2019-05-06T06:34:09.295Z,6.20
2019-05-06T06:36:39.385Z,6.00
2019-05-06T06:39:12.662Z,6.03
2019-05-06T06:41:42.345Z,3.25
2019-05-06T06:44:13.255Z,2.92
2019-05-06T06:46:45.247Z,5.33
2019-05-06T06:49:14.166Z,4.25
2019-05-06T06:51:46.876Z,5.45
2019-05-06T06:54:16.638Z,3.90
2019-05-06T06:57:08.278Z,4.08
2019-05-06T06:59:40.183Z,9.28
2019-05-06T07:02:13.400Z,3.62
2019-05-06T07:04:49.469Z,3.30
2019-05-06T07:07:19.566Z,5.60
2019-05-06T07:09:48.521Z,3.77
2019-05-06T07:12:17.203Z,5.42
2019-05-06T07:14:45.755Z,4.10
2019-05-06T07:17:15.236Z,4.42
2019-05-06T07:19:46.094Z,7.65
2019-05-06T07:22:15.182Z,5.17
2019-05-06T07:24:43.712Z,2.47
2019-05-06T07:27:13.693Z,3.80
2019-05-06T07:29:48.331Z,9.30
2019-05-06T07:32:13.447Z,3.90
2019-05-06T07:34:44.435Z,6.40
2019-05-06T07:37:13.248Z,4.65
2019-05-06T07:39:48.036Z,3.83
2019-05-06T07:42:18.712Z,3.98
2019-05-06T07:44:53.038Z,3.77
2019-05-06T07:47:33.152Z,5.33
2019-05-06T07:50:03.280Z,9.55
2019-05-06T07:52:32.562Z,6.20
2019-05-06T07:55:02.610Z,4.67
2019-05-06T08:00:03.414Z,6.85
2019-05-06T08:02:33.143Z,5.67
2019-05-06T08:05:02.743Z,3.85
2019-05-06T08:07:33.295Z,5.87
2019-05-06T08:10:06.565Z,4.47
2019-05-06T08:12:38.042Z,8.03
2019-05-06T08:15:07.948Z,5.35
2019-05-06T08:20:09.507Z,5.08
2019-05-06T08:22:56.624Z,4.20
2019-05-06T08:25:25.544Z,4.30
2019-05-06T08:27:55.246Z,3.72
2019-05-06T08:30:24.731Z,4.78
2019-05-06T08:32:54.061Z,5.80
2019-05-06T08:35:22.905Z,5.58
2019-05-06T08:37:53.137Z,5.10
2019-05-06T08:40:22.722Z,6.40
2019-05-06T08:42:53.174Z,5.22
2019-05-06T08:45:22.431Z,6.40
2019-05-06T08:47:52.381Z,5.47
2019-05-06T08:52:58.354Z,11.18
2019-05-06T08:55:28.778Z,6.22
2019-05-06T08:57:57.447Z,8.78
2019-05-06T09:00:26.299Z,8.25
2019-05-06T09:02:54.924Z,6.70
2019-05-06T09:05:23.693Z,9.35
2019-05-06T09:07:52.746Z,10.05
2019-05-06T09:10:22.681Z,10.43
2019-05-06T09:12:52.553Z,9.83
2019-05-06T09:15:21.990Z,10.45
2019-05-06T09:17:52.501Z,8.85
2019-05-06T09:22:48.675Z,10.15
2019-05-06T09:25:17.263Z,15.65
2019-05-06T09:27:47.505Z,15.53
2019-05-06T09:30:35.104Z,15.70
2019-05-06T09:33:03.582Z,17.52
2019-05-06T09:35:32.918Z,19.30
2019-05-06T09:38:02.646Z,18.42
2019-05-06T09:40:31.920Z,16.48
2019-05-06T09:43:04.472Z,14.07
2019-05-06T09:45:32.978Z,15.40
2019-05-06T09:48:06.646Z,19.20
2019-05-06T09:50:45.514Z,16.77
2019-05-06T09:53:16.314Z,16.40
2019-05-06T09:56:04.960Z,18.05
2019-05-06T09:58:38.650Z,17.23
2019-05-06T10:01:07.324Z,16.85
2019-05-06T10:03:35.803Z,12.85
2019-05-06T10:06:04.393Z,6.58
2019-05-06T10:08:33.365Z,8.05
2019-05-06T10:11:03.226Z,9.60
2019-05-06T10:16:02.980Z,8.18
2019-05-06T10:18:31.815Z,7.40
2019-05-06T10:21:00.254Z,12.47
2019-05-06T10:23:28.931Z,8.13
2019-05-06T10:25:57.972Z,8.50
2019-05-06T10:28:28.394Z,9.18
2019-05-06T10:30:57.334Z,6.72
2019-05-06T10:33:27.343Z,7.83
2019-05-06T10:38:49.578Z,13.75
2019-05-06T10:41:22.182Z,18.90
2019-05-06T10:44:22.621Z,19.37
2019-05-06T10:46:53.432Z,24.50
2019-05-06T10:49:22.561Z,18.67
2019-05-06T10:52:07.757Z,21.57
2019-05-06T10:54:38.366Z,20.70
2019-05-06T10:57:12.599Z,22.93
2019-05-06T10:59:42.917Z,22.77
2019-05-06T11:02:23.252Z,19.37
2019-05-06T11:04:52.943Z,19.55
2019-05-06T11:07:31.438Z,18.75
2019-05-06T11:09:53.314Z,21.55
2019-05-06T11:12:22.083Z,21.45
2019-05-06T11:14:53.301Z,24.02
2019-05-06T11:17:23.223Z,17.80
2019-05-06T11:19:53.157Z,20.82
2019-05-06T11:24:51.316Z,24.45
2019-05-06T11:27:28.820Z,24.57
2019-05-06T11:29:53.089Z,23.85
2019-05-06T11:32:35.256Z,25.05
2019-05-06T11:35:06.570Z,23.52
2019-05-06T11:37:49.846Z,20.60
2019-05-06T11:40:16.773Z,19.95
2019-05-06T11:42:44.683Z,20.95
2019-05-06T11:45:13.407Z,22.80
2019-05-06T11:47:42.691Z,17.42
2019-05-06T11:50:12.948Z,19.75
2019-05-06T11:52:46.250Z,26.60
2019-05-06T11:55:28.814Z,18.02
2019-05-06T11:57:53.110Z,13.65
2019-05-06T12:00:23.994Z,10.45
2019-05-06T12:02:55.032Z,14.58
2019-05-06T12:05:24.432Z,9.43
2019-05-06T12:08:06.903Z,8.45
2019-05-06T12:10:25.878Z,10.15
2019-05-06T12:12:55.940Z,7.83
2019-05-06T12:17:53.802Z,9.23
2019-05-06T12:20:22.702Z,8.75
2019-05-06T12:22:52.995Z,6.78
2019-05-06T12:25:23.616Z,8.65
2019-05-06T12:27:52.596Z,9.20
2019-05-06T12:30:23.470Z,11.22
2019-05-06T12:32:53.766Z,9.28
2019-05-06T12:35:23.063Z,8.35
2019-05-06T12:37:53.326Z,8.75
2019-05-06T12:40:21.909Z,10.82
2019-05-06T12:43:13.597Z,9.40
2019-05-06T12:45:43.771Z,9.95
2019-05-06T12:48:14.187Z,11.93
2019-05-06T12:50:43.178Z,9.08
2019-05-06T12:53:13.287Z,12.65
2019-05-06T12:55:43.115Z,10.65
2019-05-06T12:58:13.590Z,11.10
2019-05-06T13:00:44.484Z,11.75
2019-05-06T13:03:13.134Z,8.88
2019-05-06T13:05:42.817Z,7.93
2019-05-06T13:08:19.044Z,10.48
2019-05-06T13:10:44.704Z,13.25
2019-05-06T13:13:14.159Z,15.20
2019-05-06T13:15:43.681Z,13.50
2019-05-06T13:18:12.449Z,13.72
2019-05-06T13:20:50.165Z,12.43
2019-05-06T13:23:20.930Z,13.10
2019-05-06T13:25:45.713Z,9.38
2019-05-06T13:28:16.255Z,12.35
2019-05-06T13:30:47.649Z,10.20
2019-05-06T13:33:21.544Z,12.82
2019-05-06T13:35:53.073Z,13.70
2019-05-06T13:38:22.714Z,15.20
2019-05-06T13:40:56.651Z,12.80
2019-05-06T13:43:26.048Z,11.68
2019-05-06T13:45:56.446Z,9.88
2019-05-06T13:48:29.282Z,9.98
2019-05-06T13:51:03.127Z,10.13
2019-05-06T13:53:39.051Z,13.45
2019-05-06T13:56:02.606Z,10.10
2019-05-06T13:58:32.329Z,8.98
2019-05-06T14:01:03.089Z,9.33
2019-05-06T14:03:32.707Z,8.90
2019-05-06T14:06:07.967Z,10.25
2019-05-06T14:08:34.985Z,12.90
2019-05-06T14:11:06.031Z,13.08
2019-05-06T14:13:49.896Z,12.73
2019-05-06T14:16:24.178Z,10.20
2019-05-06T14:18:53.188Z,13.60
2019-05-06T14:21:22.952Z,11.45
2019-05-06T14:23:55.542Z,12.60
2019-05-06T14:26:33.318Z,11.22
2019-05-06T14:29:08.217Z,10.85
2019-05-06T14:31:46.959Z,11.22
2019-05-06T14:34:33.497Z,11.25
2019-05-06T14:37:05.296Z,12.20
2019-05-06T14:39:52.122Z,12.23
2019-05-06T14:42:08.661Z,13.28
2019-05-06T14:44:44.721Z,14.07
2019-05-06T14:47:12.636Z,15.98
2019-05-06T14:49:53.031Z,13.40
2019-05-06T14:54:56.866Z,16.82
2019-05-06T14:57:26.374Z,16.07
2019-05-06T14:59:55.964Z,17.80
2019-05-06T15:02:27.254Z,14.63
2019-05-06T15:04:57.619Z,13.55
2019-05-06T15:07:27.406Z,17.40
2019-05-06T15:10:18.864Z,14.80
2019-05-06T15:12:45.710Z,18.77
2019-05-06T15:15:23.122Z,17.15
2019-05-06T15:17:59.527Z,16.40
2019-05-06T15:20:36.983Z,22.45
2019-05-06T15:23:18.255Z,15.18
2019-05-06T15:25:49.457Z,14.90
2019-05-06T15:28:36.954Z,14.95
2019-05-06T15:31:16.695Z,16.00
2019-05-06T15:33:52.956Z,15.60
2019-05-06T15:36:34.736Z,17.87
2019-05-06T15:39:03.987Z,17.65
2019-05-06T15:41:32.878Z,16.65
2019-05-06T15:44:02.968Z,14.05
2019-05-06T15:46:32.303Z,19.02
2019-05-06T15:49:03.059Z,16.73
2019-05-06T15:51:34.451Z,20.17
2019-05-06T15:54:05.823Z,20.65
2019-05-06T15:56:34.943Z,16.07
2019-05-06T15:59:04.365Z,20.17
2019-05-06T16:01:38.166Z,19.67
2019-05-06T16:04:13.121Z,17.65
2019-05-06T16:06:46.594Z,21.25
2019-05-06T16:09:23.454Z,16.65
2019-05-06T16:12:12.746Z,19.15
2019-05-06T16:14:44.005Z,19.23
2019-05-06T16:17:23.878Z,16.40
2019-05-06T16:19:57.173Z,17.87
2019-05-06T16:22:30.427Z,17.40
2019-05-06T16:25:14.670Z,14.90
2019-05-06T16:27:52.179Z,12.70
2019-05-06T16:30:24.460Z,15.45
2019-05-06T16:32:57.668Z,14.35
2019-05-06T16:35:27.415Z,14.40
2019-05-06T16:38:12.988Z,23.10
2019-05-06T16:40:46.688Z,15.38
2019-05-06T16:43:22.160Z,14.45
2019-05-06T16:45:56.944Z,12.40
2019-05-06T16:48:28.454Z,14.70
2019-05-06T16:50:57.366Z,16.57
2019-05-06T16:53:29.894Z,16.25
2019-05-06T16:56:04.980Z,15.08
2019-05-06T16:58:38.762Z,16.07
2019-05-06T17:01:07.818Z,17.95
2019-05-06T17:03:44.234Z,19.03
2019-05-06T17:06:33.030Z,13.40
2019-05-06T17:09:17.218Z,18.23
2019-05-06T17:11:42.666Z,21.10
2019-05-06T17:14:12.260Z,25.50
2019-05-06T17:16:42.509Z,17.02
2019-05-06T17:19:12.860Z,43.35
2019-05-06T17:21:42.302Z,29.23
2019-05-06T17:24:13.062Z,27.25
2019-05-06T17:26:42.658Z,22.87
2019-05-06T17:31:51.733Z,18.87
2019-05-06T17:34:32.922Z,18.50
2019-05-06T17:37:03.922Z,21.30
2019-05-06T17:39:42.396Z,19.05
2019-05-06T17:42:14.066Z,15.65
2019-05-06T17:44:44.071Z,14.05
2019-05-06T17:49:55.445Z,14.55
2019-05-06T17:52:27.706Z,17.30
2019-05-06T17:54:59.094Z,15.90
2019-05-06T17:57:27.812Z,17.70
2019-05-06T17:59:56.621Z,20.80
2019-05-06T18:02:28.082Z,23.55
2019-05-06T18:05:03.015Z,19.75
2019-05-06T18:07:33.127Z,22.75
2019-05-06T18:12:36.359Z,19.42
2019-05-06T18:15:09.871Z,18.45
2019-05-06T18:17:39.759Z,23.05
2019-05-06T18:20:10.027Z,32.60
2019-05-06T18:22:41.005Z,20.40
2019-05-06T18:25:12.629Z,21.05
2019-05-06T18:27:42.981Z,22.52
2019-05-06T18:30:22.099Z,22.40
2019-05-06T18:32:42.487Z,24.40
2019-05-06T18:35:13.078Z,20.97
2019-05-06T18:37:42.647Z,20.02
2019-05-06T18:40:12.102Z,20.27
2019-05-06T18:42:43.022Z,18.50
2019-05-06T18:45:12.784Z,18.25
2019-05-06T18:47:42.862Z,19.50
2019-05-06T18:52:43.110Z,15.08
2019-05-06T18:55:13.015Z,16.05
2019-05-06T18:57:43.154Z,18.12
2019-05-06T19:00:15.585Z,22.98
2019-05-06T19:02:44.621Z,18.67
2019-05-06T19:05:14.805Z,21.90
2019-05-06T19:07:46.706Z,15.65
2019-05-06T19:10:19.031Z,15.63
2019-05-06T19:12:47.403Z,16.17
2019-05-06T19:15:16.977Z,15.13
2019-05-06T19:17:45.646Z,17.40
2019-05-06T19:20:14.457Z,25.82
2019-05-06T19:22:43.446Z,21.45
2019-05-06T19:25:15.291Z,15.20
2019-05-06T19:27:43.920Z,17.40
2019-05-06T19:30:13.194Z,16.97
2019-05-06T19:32:44.330Z,20.10
2019-05-06T19:35:13.264Z,18.37
2019-05-06T19:37:41.967Z,18.52
2019-05-06T19:40:12.118Z,17.95
2019-05-06T19:42:47.174Z,17.77
2019-05-06T19:45:12.925Z,17.92
2019-05-06T19:47:42.554Z,20.95
2019-05-06T19:52:38.971Z,16.93
2019-05-06T19:55:07.796Z,20.05
2019-05-06T19:57:36.673Z,20.60
2019-05-06T20:00:05.456Z,22.02
2019-05-06T20:02:34.143Z,25.45
2019-05-06T20:05:04.076Z,18.23
2019-05-06T20:10:34.550Z,18.10
2019-05-06T20:13:05.455Z,16.95
2019-05-06T20:15:35.968Z,23.95
2019-05-06T20:18:05.162Z,19.15
2019-05-06T20:20:35.065Z,20.20
2019-05-06T20:23:04.297Z,16.07
2019-05-06T20:25:32.974Z,18.30
2019-05-06T20:28:02.404Z,21.82
2019-05-06T20:30:32.653Z,18.92
2019-05-06T20:33:01.038Z,17.40
2019-05-06T20:35:29.489Z,17.73
2019-05-06T20:37:57.983Z,16.23
2019-05-06T20:40:26.906Z,20.27
2019-05-06T20:42:55.821Z,20.43
2019-05-06T20:45:24.744Z,17.85
2019-05-06T20:47:53.281Z,22.48
2019-05-06T20:50:22.556Z,22.13
2019-05-06T20:52:52.203Z,24.65
2019-05-06T20:55:22.859Z,24.82
2019-05-06T20:57:52.922Z,17.50
2019-05-06T21:00:22.381Z,20.88
2019-05-06T21:02:53.396Z,21.12
2019-05-06T21:05:22.760Z,18.90
2019-05-06T21:10:22.068Z,24.18
2019-05-06T21:12:53.005Z,19.90
2019-05-06T21:15:22.942Z,16.55
2019-05-06T21:17:51.015Z,24.35
2019-05-06T21:20:19.428Z,23.70
2019-05-06T21:22:49.134Z,24.77
2019-05-06T21:25:18.293Z,19.98
2019-05-06T21:27:47.638Z,22.42
2019-05-06T21:30:16.440Z,25.23
2019-05-06T21:32:45.436Z,18.07
2019-05-06T21:35:14.729Z,23.43
2019-05-06T21:37:43.364Z,24.52
2019-05-06T21:40:12.507Z,15.63
2019-05-06T21:42:45.171Z,22.82
2019-05-06T21:45:22.011Z,20.55
2019-05-06T21:47:50.262Z,24.23
2019-05-06T21:50:19.118Z,19.37
2019-05-06T21:52:51.979Z,20.62
2019-05-06T21:55:22.695Z,19.17
2019-05-06T21:57:53.127Z,19.55
2019-05-06T22:00:28.034Z,21.07
2019-05-06T22:03:02.282Z,25.23
2019-05-06T22:05:37.620Z,21.23
2019-05-06T22:08:09.369Z,23.35
2019-05-06T22:10:39.231Z,19.73
2019-05-06T22:13:08.531Z,19.37
2019-05-06T22:15:42.096Z,17.95
2019-05-06T22:18:12.442Z,18.32
2019-05-06T22:20:58.642Z,17.37
2019-05-06T22:23:29.084Z,23.92
2019-05-06T22:26:08.530Z,22.85
2019-05-06T22:28:28.665Z,16.85
2019-05-06T22:30:57.374Z,21.63
2019-05-06T22:33:26.124Z,19.77
2019-05-06T22:35:55.412Z,14.18
2019-05-06T22:38:24.203Z,18.32
2019-05-06T22:40:53.084Z,18.42
2019-05-06T22:43:22.645Z,17.90
2019-05-06T22:45:53.205Z,19.42
2019-05-06T22:48:22.328Z,22.17
2019-05-06T22:50:52.921Z,16.07
2019-05-06T22:53:22.172Z,14.30
2019-05-06T22:55:52.506Z,18.00
2019-05-06T22:58:22.781Z,19.23
2019-05-06T23:00:56.204Z,19.42
2019-05-06T23:03:29.030Z,18.35
2019-05-06T23:05:57.819Z,20.30
2019-05-06T23:08:26.894Z,13.80
2019-05-06T23:10:55.929Z,23.10
2019-05-06T23:13:25.350Z,15.60
2019-05-06T23:15:54.155Z,12.63
2019-05-06T23:18:24.384Z,20.40
2019-05-06T23:20:54.413Z,19.27
2019-05-06T23:26:09.151Z,16.70
2019-05-06T23:28:37.663Z,18.30
2019-05-06T23:31:06.551Z,16.05
2019-05-06T23:33:35.598Z,18.82
2019-05-06T23:36:04.089Z,15.53
2019-05-06T23:39:09.158Z,16.17
2019-05-06T23:42:16.183Z,19.87
2019-05-06T23:45:22.853Z,16.23
2019-05-06T23:48:27.822Z,20.32
2019-05-06T23:51:33.090Z,17.87
2019-05-06T23:54:37.476Z,29.30
2019-05-06T23:57:05.298Z,15.15
2019-05-06T23:59:35.297Z,21.23
